sensor_id;sensor_type;location;lat;lon;timestamp;P1;durP1;ratioP1;P2;durP2;ratioP2
78072;SDS011;67281;48.770;11.440;2023-03-04T00:00:06;16.13;;;11.10;;
78072;SDS011;67281;48.770;11.440;2023-03-04T00:02:34;16.33;;;11.70;;
78072;SDS011;67281;48.770;11.440;2023-03-04T00:05:00;14.83;;;11.33;;
78072;SDS011;67281;48.770;11.440;2023-03-04T00:07:29;15.63;;;10.47;;
78072;SDS011;67281;48.770;11.440;2023-03-04T00:09:55;17.00;;;11.57;;
78072;SDS011;67281;48.770;11.440;2023-03-04T00:12:22;15.10;;;11.27;;
78072;SDS011;67281;48.770;11.440;2023-03-04T00:14:49;13.87;;;10.43;;
78072;SDS011;67281;48.770;11.440;2023-03-04T00:17:16;14.43;;;10.77;;
78072;SDS011;67281;48.770;11.440;2023-03-04T00:19:43;13.00;;;10.20;;
78072;SDS011;67281;48.770;11.440;2023-03-04T00:22:10;15.23;;;10.60;;
78072;SDS011;67281;48.770;11.440;2023-03-04T00:24:37;11.70;;;9.40;;
78072;SDS011;67281;48.770;11.440;2023-03-04T00:27:03;14.27;;;10.23;;
78072;SDS011;67281;48.770;11.440;2023-03-04T00:29:30;15.13;;;10.47;;
78072;SDS011;67281;48.770;11.440;2023-03-04T00:31:57;13.77;;;9.73;;
78072;SDS011;67281;48.770;11.440;2023-03-04T00:34:24;15.53;;;10.93;;
78072;SDS011;67281;48.770;11.440;2023-03-04T00:36:50;14.60;;;11.97;;
78072;SDS011;67281;48.770;11.440;2023-03-04T00:39:17;19.43;;;12.47;;
78072;SDS011;67281;48.770;11.440;2023-03-04T00:41:44;17.70;;;13.17;;
78072;SDS011;67281;48.770;11.440;2023-03-04T00:44:11;20.10;;;12.53;;
78072;SDS011;67281;48.770;11.440;2023-03-04T00:46:38;18.37;;;14.27;;
78072;SDS011;67281;48.770;11.440;2023-03-04T00:49:04;16.67;;;13.53;;
78072;SDS011;67281;48.770;11.440;2023-03-04T00:51:31;19.30;;;14.57;;
78072;SDS011;67281;48.770;11.440;2023-03-04T00:53:58;19.20;;;14.17;;
78072;SDS011;67281;48.770;11.440;2023-03-04T00:56:26;19.17;;;13.53;;
78072;SDS011;67281;48.770;11.440;2023-03-04T00:58:53;18.03;;;13.13;;
78072;SDS011;67281;48.770;11.440;2023-03-04T01:01:20;18.57;;;14.10;;
78072;SDS011;67281;48.770;11.440;2023-03-04T01:03:47;17.50;;;13.33;;
78072;SDS011;67281;48.770;11.440;2023-03-04T01:06:14;19.00;;;13.40;;
78072;SDS011;67281;48.770;11.440;2023-03-04T01:08:41;18.13;;;14.07;;
78072;SDS011;67281;48.770;11.440;2023-03-04T01:11:07;19.67;;;13.63;;
78072;SDS011;67281;48.770;11.440;2023-03-04T01:13:34;18.13;;;12.87;;
78072;SDS011;67281;48.770;11.440;2023-03-04T01:16:01;20.23;;;13.83;;
78072;SDS011;67281;48.770;11.440;2023-03-04T01:18:29;20.77;;;14.80;;
78072;SDS011;67281;48.770;11.440;2023-03-04T01:20:56;20.37;;;15.43;;
78072;SDS011;67281;48.770;11.440;2023-03-04T01:23:23;18.43;;;14.40;;
78072;SDS011;67281;48.770;11.440;2023-03-04T01:25:50;17.43;;;13.33;;
78072;SDS011;67281;48.770;11.440;2023-03-04T01:28:17;18.17;;;13.03;;
78072;SDS011;67281;48.770;11.440;2023-03-04T01:30:44;22.37;;;14.30;;
78072;SDS011;67281;48.770;11.440;2023-03-04T01:33:10;18.77;;;13.63;;
78072;SDS011;67281;48.770;11.440;2023-03-04T01:35:37;15.70;;;12.13;;
78072;SDS011;67281;48.770;11.440;2023-03-04T01:38:04;18.03;;;13.03;;
78072;SDS011;67281;48.770;11.440;2023-03-04T01:40:31;21.37;;;12.60;;
78072;SDS011;67281;48.770;11.440;2023-03-04T01:42:58;21.80;;;13.37;;
78072;SDS011;67281;48.770;11.440;2023-03-04T01:45:25;18.83;;;12.60;;
78072;SDS011;67281;48.770;11.440;2023-03-04T01:47:52;17.57;;;12.50;;
78072;SDS011;67281;48.770;11.440;2023-03-04T01:50:32;15.47;;;11.90;;
78072;SDS011;67281;48.770;11.440;2023-03-04T01:53:01;15.70;;;11.77;;
78072;SDS011;67281;48.770;11.440;2023-03-04T01:55:29;15.83;;;11.60;;
78072;SDS011;67281;48.770;11.440;2023-03-04T01:57:56;16.80;;;12.07;;
78072;SDS011;67281;48.770;11.440;2023-03-04T02:00:24;17.83;;;12.67;;
78072;SDS011;67281;48.770;11.440;2023-03-04T02:02:52;18.20;;;12.03;;
78072;SDS011;67281;48.770;11.440;2023-03-04T02:05:21;17.73;;;11.87;;
78072;SDS011;67281;48.770;11.440;2023-03-04T02:07:49;18.13;;;13.10;;
78072;SDS011;67281;48.770;11.440;2023-03-04T02:10:17;17.07;;;11.27;;
78072;SDS011;67281;48.770;11.440;2023-03-04T02:12:44;18.53;;;12.73;;
78072;SDS011;67281;48.770;11.440;2023-03-04T02:15:11;15.13;;;11.67;;
78072;SDS011;67281;48.770;11.440;2023-03-04T02:17:38;14.50;;;10.90;;
78072;SDS011;67281;48.770;11.440;2023-03-04T02:25:25;15.93;;;11.43;;
78072;SDS011;67281;48.770;11.440;2023-03-04T02:27:58;16.07;;;10.77;;
78072;SDS011;67281;48.770;11.440;2023-03-04T02:30:25;12.53;;;9.47;;
78072;SDS011;67281;48.770;11.440;2023-03-04T02:32:52;12.77;;;9.83;;
78072;SDS011;67281;48.770;11.440;2023-03-04T02:35:19;15.60;;;10.10;;
78072;SDS011;67281;48.770;11.440;2023-03-04T02:37:47;14.20;;;9.60;;
78072;SDS011;67281;48.770;11.440;2023-03-04T02:40:15;13.50;;;9.60;;
78072;SDS011;67281;48.770;11.440;2023-03-04T02:42:48;14.33;;;8.97;;
78072;SDS011;67281;48.770;11.440;2023-03-04T02:48:16;14.20;;;9.67;;
78072;SDS011;67281;48.770;11.440;2023-03-04T02:50:46;12.37;;;9.07;;
78072;SDS011;67281;48.770;11.440;2023-03-04T02:53:15;11.83;;;9.40;;
78072;SDS011;67281;48.770;11.440;2023-03-04T02:55:42;17.43;;;10.90;;
78072;SDS011;67281;48.770;11.440;2023-03-04T02:58:10;13.63;;;10.43;;
78072;SDS011;67281;48.770;11.440;2023-03-04T03:00:37;13.17;;;9.20;;
78072;SDS011;67281;48.770;11.440;2023-03-04T03:03:04;12.70;;;9.40;;
78072;SDS011;67281;48.770;11.440;2023-03-04T03:05:32;12.83;;;9.27;;
78072;SDS011;67281;48.770;11.440;2023-03-04T03:08:00;14.63;;;10.13;;
78072;SDS011;67281;48.770;11.440;2023-03-04T03:10:26;13.37;;;9.90;;
78072;SDS011;67281;48.770;11.440;2023-03-04T03:12:53;13.53;;;9.90;;
78072;SDS011;67281;48.770;11.440;2023-03-04T03:15:20;12.17;;;9.30;;
78072;SDS011;67281;48.770;11.440;2023-03-04T03:17:47;14.73;;;10.57;;
78072;SDS011;67281;48.770;11.440;2023-03-04T03:20:14;15.10;;;9.77;;
78072;SDS011;67281;48.770;11.440;2023-03-04T03:22:41;13.07;;;9.80;;
78072;SDS011;67281;48.770;11.440;2023-03-04T03:25:09;12.37;;;9.87;;
78072;SDS011;67281;48.770;11.440;2023-03-04T03:27:37;12.90;;;10.23;;
78072;SDS011;67281;48.770;11.440;2023-03-04T03:30:04;13.93;;;9.93;;
78072;SDS011;67281;48.770;11.440;2023-03-04T03:32:32;12.97;;;10.10;;
78072;SDS011;67281;48.770;11.440;2023-03-04T03:34:59;12.67;;;9.23;;
78072;SDS011;67281;48.770;11.440;2023-03-04T03:37:26;15.03;;;9.97;;
78072;SDS011;67281;48.770;11.440;2023-03-04T03:39:53;14.37;;;9.57;;
78072;SDS011;67281;48.770;11.440;2023-03-04T03:42:20;16.53;;;9.53;;
78072;SDS011;67281;48.770;11.440;2023-03-04T03:44:46;13.90;;;10.13;;
78072;SDS011;67281;48.770;11.440;2023-03-04T03:47:15;15.03;;;10.03;;
78072;SDS011;67281;48.770;11.440;2023-03-04T03:49:42;14.43;;;10.67;;
78072;SDS011;67281;48.770;11.440;2023-03-04T03:52:09;17.90;;;11.00;;
78072;SDS011;67281;48.770;11.440;2023-03-04T03:54:36;15.60;;;10.50;;
78072;SDS011;67281;48.770;11.440;2023-03-04T03:57:03;14.30;;;10.03;;
78072;SDS011;67281;48.770;11.440;2023-03-04T03:59:30;13.40;;;9.87;;
78072;SDS011;67281;48.770;11.440;2023-03-04T04:01:56;13.63;;;10.67;;
78072;SDS011;67281;48.770;11.440;2023-03-04T04:04:24;13.20;;;10.47;;
78072;SDS011;67281;48.770;11.440;2023-03-04T04:06:51;15.37;;;10.50;;
78072;SDS011;67281;48.770;11.440;2023-03-04T04:09:18;14.40;;;10.27;;
78072;SDS011;67281;48.770;11.440;2023-03-04T04:11:45;13.80;;;10.47;;
78072;SDS011;67281;48.770;11.440;2023-03-04T04:14:12;14.87;;;10.77;;
78072;SDS011;67281;48.770;11.440;2023-03-04T04:16:40;17.53;;;10.60;;
78072;SDS011;67281;48.770;11.440;2023-03-04T04:19:07;15.03;;;10.47;;
78072;SDS011;67281;48.770;11.440;2023-03-04T04:21:35;15.50;;;11.77;;
78072;SDS011;67281;48.770;11.440;2023-03-04T04:24:02;16.60;;;11.73;;
78072;SDS011;67281;48.770;11.440;2023-03-04T04:26:29;17.97;;;12.40;;
78072;SDS011;67281;48.770;11.440;2023-03-04T04:28:55;16.60;;;11.93;;
78072;SDS011;67281;48.770;11.440;2023-03-04T04:31:22;15.73;;;11.33;;
78072;SDS011;67281;48.770;11.440;2023-03-04T04:33:49;15.70;;;11.73;;
78072;SDS011;67281;48.770;11.440;2023-03-04T04:36:15;16.03;;;11.33;;
78072;SDS011;67281;48.770;11.440;2023-03-04T04:38:42;16.17;;;11.37;;
78072;SDS011;67281;48.770;11.440;2023-03-04T04:41:16;15.13;;;10.40;;
78072;SDS011;67281;48.770;11.440;2023-03-04T04:43:46;15.20;;;11.47;;
78072;SDS011;67281;48.770;11.440;2023-03-04T04:46:13;15.37;;;11.27;;
78072;SDS011;67281;48.770;11.440;2023-03-04T04:48:40;17.17;;;11.23;;
78072;SDS011;67281;48.770;11.440;2023-03-04T04:51:07;15.90;;;12.13;;
78072;SDS011;67281;48.770;11.440;2023-03-04T04:53:34;16.50;;;10.80;;
78072;SDS011;67281;48.770;11.440;2023-03-04T04:56:11;16.57;;;11.43;;
78072;SDS011;67281;48.770;11.440;2023-03-04T04:58:39;13.90;;;10.90;;
78072;SDS011;67281;48.770;11.440;2023-03-04T05:01:06;14.47;;;10.03;;
78072;SDS011;67281;48.770;11.440;2023-03-04T05:03:33;14.60;;;10.37;;
78072;SDS011;67281;48.770;11.440;2023-03-04T05:06:02;15.87;;;11.07;;
78072;SDS011;67281;48.770;11.440;2023-03-04T05:08:30;14.37;;;10.63;;
78072;SDS011;67281;48.770;11.440;2023-03-04T05:10:57;14.80;;;11.30;;
78072;SDS011;67281;48.770;11.440;2023-03-04T05:13:24;14.47;;;11.07;;
78072;SDS011;67281;48.770;11.440;2023-03-04T05:15:51;15.23;;;11.30;;
78072;SDS011;67281;48.770;11.440;2023-03-04T05:18:19;17.60;;;12.03;;
78072;SDS011;67281;48.770;11.440;2023-03-04T05:20:53;15.03;;;10.87;;
78072;SDS011;67281;48.770;11.440;2023-03-04T05:23:22;18.13;;;10.63;;
78072;SDS011;67281;48.770;11.440;2023-03-04T05:25:50;14.40;;;10.27;;
78072;SDS011;67281;48.770;11.440;2023-03-04T05:28:17;13.97;;;10.83;;
78072;SDS011;67281;48.770;11.440;2023-03-04T05:30:45;16.37;;;11.33;;
78072;SDS011;67281;48.770;11.440;2023-03-04T05:33:13;16.70;;;11.57;;
78072;SDS011;67281;48.770;11.440;2023-03-04T05:35:42;14.17;;;10.40;;
78072;SDS011;67281;48.770;11.440;2023-03-04T05:38:10;16.00;;;11.37;;
78072;SDS011;67281;48.770;11.440;2023-03-04T05:40:39;16.27;;;11.53;;
78072;SDS011;67281;48.770;11.440;2023-03-04T05:43:07;15.20;;;11.73;;
78072;SDS011;67281;48.770;11.440;2023-03-04T05:45:33;14.97;;;11.73;;
78072;SDS011;67281;48.770;11.440;2023-03-04T05:48:00;15.40;;;10.93;;
78072;SDS011;67281;48.770;11.440;2023-03-04T05:50:28;15.90;;;11.27;;
78072;SDS011;67281;48.770;11.440;2023-03-04T05:52:55;16.93;;;11.67;;
78072;SDS011;67281;48.770;11.440;2023-03-04T05:55:21;15.03;;;11.40;;
78072;SDS011;67281;48.770;11.440;2023-03-04T05:57:48;15.93;;;11.53;;
78072;SDS011;67281;48.770;11.440;2023-03-04T06:00:15;14.17;;;10.53;;
78072;SDS011;67281;48.770;11.440;2023-03-04T06:02:43;16.53;;;10.97;;
78072;SDS011;67281;48.770;11.440;2023-03-04T06:05:11;15.93;;;11.17;;
78072;SDS011;67281;48.770;11.440;2023-03-04T06:07:39;14.10;;;10.87;;
78072;SDS011;67281;48.770;11.440;2023-03-04T06:10:06;15.70;;;11.43;;
78072;SDS011;67281;48.770;11.440;2023-03-04T06:12:33;16.10;;;11.67;;
78072;SDS011;67281;48.770;11.440;2023-03-04T06:14:59;17.57;;;12.70;;
78072;SDS011;67281;48.770;11.440;2023-03-04T06:17:28;16.20;;;11.77;;
78072;SDS011;67281;48.770;11.440;2023-03-04T06:19:55;15.17;;;11.47;;
78072;SDS011;67281;48.770;11.440;2023-03-04T06:22:22;16.70;;;10.97;;
78072;SDS011;67281;48.770;11.440;2023-03-04T06:24:49;14.30;;;10.73;;
78072;SDS011;67281;48.770;11.440;2023-03-04T06:27:15;15.10;;;11.17;;
78072;SDS011;67281;48.770;11.440;2023-03-04T06:29:42;15.00;;;11.00;;
78072;SDS011;67281;48.770;11.440;2023-03-04T06:32:09;13.73;;;11.07;;
78072;SDS011;67281;48.770;11.440;2023-03-04T06:34:35;17.50;;;11.90;;
78072;SDS011;67281;48.770;11.440;2023-03-04T06:37:02;16.67;;;11.87;;
78072;SDS011;67281;48.770;11.440;2023-03-04T06:39:29;16.57;;;11.40;;
78072;SDS011;67281;48.770;11.440;2023-03-04T06:41:56;15.23;;;11.40;;
78072;SDS011;67281;48.770;11.440;2023-03-04T06:44:22;14.93;;;10.40;;
78072;SDS011;67281;48.770;11.440;2023-03-04T06:46:49;15.73;;;11.07;;
78072;SDS011;67281;48.770;11.440;2023-03-04T06:49:16;15.03;;;10.87;;
78072;SDS011;67281;48.770;11.440;2023-03-04T06:51:43;16.20;;;11.93;;
78072;SDS011;67281;48.770;11.440;2023-03-04T06:54:10;15.10;;;11.50;;
78072;SDS011;67281;48.770;11.440;2023-03-04T06:56:36;11.67;;;9.80;;
78072;SDS011;67281;48.770;11.440;2023-03-04T06:59:03;17.13;;;10.83;;
78072;SDS011;67281;48.770;11.440;2023-03-04T07:01:39;16.03;;;10.60;;
78072;SDS011;67281;48.770;11.440;2023-03-04T07:04:06;14.27;;;10.67;;
78072;SDS011;67281;48.770;11.440;2023-03-04T07:06:33;13.57;;;9.20;;
78072;SDS011;67281;48.770;11.440;2023-03-04T07:09:00;13.40;;;10.40;;
78072;SDS011;67281;48.770;11.440;2023-03-04T07:11:26;13.10;;;9.10;;
78072;SDS011;67281;48.770;11.440;2023-03-04T07:13:53;13.93;;;9.60;;
78072;SDS011;67281;48.770;11.440;2023-03-04T07:16:21;13.93;;;10.00;;
78072;SDS011;67281;48.770;11.440;2023-03-04T07:18:48;14.60;;;10.80;;
78072;SDS011;67281;48.770;11.440;2023-03-04T07:21:15;13.73;;;10.27;;
78072;SDS011;67281;48.770;11.440;2023-03-04T07:23:42;12.83;;;9.37;;
78072;SDS011;67281;48.770;11.440;2023-03-04T07:26:09;12.17;;;8.67;;
78072;SDS011;67281;48.770;11.440;2023-03-04T07:28:36;11.17;;;9.33;;
78072;SDS011;67281;48.770;11.440;2023-03-04T07:31:46;12.53;;;9.47;;
78072;SDS011;67281;48.770;11.440;2023-03-04T07:33:56;13.50;;;9.97;;
78072;SDS011;67281;48.770;11.440;2023-03-04T07:36:28;14.73;;;10.10;;
78072;SDS011;67281;48.770;11.440;2023-03-04T07:38:55;11.47;;;8.20;;
78072;SDS011;67281;48.770;11.440;2023-03-04T07:41:23;9.77;;;6.53;;
78072;SDS011;67281;48.770;11.440;2023-03-04T07:43:52;11.40;;;8.63;;
78072;SDS011;67281;48.770;11.440;2023-03-04T07:46:19;11.07;;;7.83;;
78072;SDS011;67281;48.770;11.440;2023-03-04T07:48:46;13.40;;;9.70;;
78072;SDS011;67281;48.770;11.440;2023-03-04T07:51:13;13.03;;;8.70;;
78072;SDS011;67281;48.770;11.440;2023-03-04T07:53:42;11.70;;;8.33;;
78072;SDS011;67281;48.770;11.440;2023-03-04T07:56:12;13.73;;;8.30;;
78072;SDS011;67281;48.770;11.440;2023-03-04T07:58:40;11.13;;;7.87;;
78072;SDS011;67281;48.770;11.440;2023-03-04T08:01:17;10.77;;;7.50;;
78072;SDS011;67281;48.770;11.440;2023-03-04T08:03:46;12.73;;;9.03;;
78072;SDS011;67281;48.770;11.440;2023-03-04T08:06:14;6.13;;;4.47;;
78072;SDS011;67281;48.770;11.440;2023-03-04T08:08:41;14.83;;;8.77;;
78072;SDS011;67281;48.770;11.440;2023-03-04T08:11:12;11.73;;;8.03;;
78072;SDS011;67281;48.770;11.440;2023-03-04T08:13:40;13.83;;;8.97;;
78072;SDS011;67281;48.770;11.440;2023-03-04T08:16:07;12.93;;;8.10;;
78072;SDS011;67281;48.770;11.440;2023-03-04T08:18:35;12.30;;;9.27;;
78072;SDS011;67281;48.770;11.440;2023-03-04T08:21:07;11.10;;;8.47;;
78072;SDS011;67281;48.770;11.440;2023-03-04T08:23:36;13.10;;;8.77;;
78072;SDS011;67281;48.770;11.440;2023-03-04T08:26:11;14.57;;;9.30;;
78072;SDS011;67281;48.770;11.440;2023-03-04T08:28:44;12.37;;;9.07;;
78072;SDS011;67281;48.770;11.440;2023-03-04T08:31:11;13.27;;;9.50;;
78072;SDS011;67281;48.770;11.440;2023-03-04T08:33:39;12.53;;;8.27;;
78072;SDS011;67281;48.770;11.440;2023-03-04T08:36:06;13.67;;;8.80;;
78072;SDS011;67281;48.770;11.440;2023-03-04T08:38:34;13.10;;;9.50;;
78072;SDS011;67281;48.770;11.440;2023-03-04T08:41:01;13.13;;;8.87;;
78072;SDS011;67281;48.770;11.440;2023-03-04T08:43:29;13.43;;;8.80;;
78072;SDS011;67281;48.770;11.440;2023-03-04T08:45:56;12.40;;;9.00;;
78072;SDS011;67281;48.770;11.440;2023-03-04T08:48:23;12.33;;;8.97;;
78072;SDS011;67281;48.770;11.440;2023-03-04T08:50:50;14.57;;;9.43;;
78072;SDS011;67281;48.770;11.440;2023-03-04T08:53:17;12.60;;;8.83;;
78072;SDS011;67281;48.770;11.440;2023-03-04T08:55:45;13.63;;;8.27;;
78072;SDS011;67281;48.770;11.440;2023-03-04T08:58:13;13.03;;;8.53;;
78072;SDS011;67281;48.770;11.440;2023-03-04T09:00:41;10.93;;;8.23;;
78072;SDS011;67281;48.770;11.440;2023-03-04T09:03:10;13.57;;;8.47;;
78072;SDS011;67281;48.770;11.440;2023-03-04T09:05:38;12.47;;;9.17;;
78072;SDS011;67281;48.770;11.440;2023-03-04T09:08:05;10.47;;;7.43;;
78072;SDS011;67281;48.770;11.440;2023-03-04T09:10:32;13.13;;;8.57;;
78072;SDS011;67281;48.770;11.440;2023-03-04T09:12:59;12.20;;;8.07;;
78072;SDS011;67281;48.770;11.440;2023-03-04T09:15:27;11.00;;;8.37;;
78072;SDS011;67281;48.770;11.440;2023-03-04T09:17:54;13.60;;;8.83;;
78072;SDS011;67281;48.770;11.440;2023-03-04T09:20:21;13.80;;;8.17;;
78072;SDS011;67281;48.770;11.440;2023-03-04T09:22:48;11.00;;;8.30;;
78072;SDS011;67281;48.770;11.440;2023-03-04T09:25:15;8.73;;;6.97;;
78072;SDS011;67281;48.770;11.440;2023-03-04T09:27:42;14.27;;;8.30;;
78072;SDS011;67281;48.770;11.440;2023-03-04T09:30:09;11.43;;;7.13;;
78072;SDS011;67281;48.770;11.440;2023-03-04T09:32:37;11.00;;;7.60;;
78072;SDS011;67281;48.770;11.440;2023-03-04T09:35:04;11.30;;;8.07;;
78072;SDS011;67281;48.770;11.440;2023-03-04T09:37:34;12.03;;;8.50;;
78072;SDS011;67281;48.770;11.440;2023-03-04T09:40:01;11.47;;;7.97;;
78072;SDS011;67281;48.770;11.440;2023-03-04T09:42:34;12.93;;;8.40;;
78072;SDS011;67281;48.770;11.440;2023-03-04T09:45:04;12.13;;;8.57;;
78072;SDS011;67281;48.770;11.440;2023-03-04T09:47:33;13.60;;;8.80;;
78072;SDS011;67281;48.770;11.440;2023-03-04T09:50:05;16.43;;;9.17;;
78072;SDS011;67281;48.770;11.440;2023-03-04T09:55:28;12.03;;;8.13;;
78072;SDS011;67281;48.770;11.440;2023-03-04T10:00:51;15.20;;;9.63;;
78072;SDS011;67281;48.770;11.440;2023-03-04T10:03:21;13.57;;;9.67;;
78072;SDS011;67281;48.770;11.440;2023-03-04T10:05:57;12.73;;;9.67;;
78072;SDS011;67281;48.770;11.440;2023-03-04T10:08:35;12.60;;;9.03;;
78072;SDS011;67281;48.770;11.440;2023-03-04T10:16:44;14.20;;;9.30;;
78072;SDS011;67281;48.770;11.440;2023-03-04T10:19:33;14.43;;;9.63;;
78072;SDS011;67281;48.770;11.440;2023-03-04T10:22:02;12.40;;;8.60;;
78072;SDS011;67281;48.770;11.440;2023-03-04T10:24:42;13.63;;;9.93;;
78072;SDS011;67281;48.770;11.440;2023-03-04T10:27:12;15.27;;;10.23;;
78072;SDS011;67281;48.770;11.440;2023-03-04T10:29:44;13.47;;;10.57;;
78072;SDS011;67281;48.770;11.440;2023-03-04T10:32:15;14.13;;;10.63;;
78072;SDS011;67281;48.770;11.440;2023-03-04T10:34:44;13.70;;;10.23;;
78072;SDS011;67281;48.770;11.440;2023-03-04T10:37:10;13.57;;;9.93;;
78072;SDS011;67281;48.770;11.440;2023-03-04T10:39:39;12.43;;;8.13;;
78072;SDS011;67281;48.770;11.440;2023-03-04T10:42:22;13.17;;;9.50;;
78072;SDS011;67281;48.770;11.440;2023-03-04T10:44:56;16.37;;;10.33;;
78072;SDS011;67281;48.770;11.440;2023-03-04T10:47:28;14.37;;;10.07;;
78072;SDS011;67281;48.770;11.440;2023-03-04T10:49:58;14.67;;;10.23;;
78072;SDS011;67281;48.770;11.440;2023-03-04T10:52:39;13.77;;;9.43;;
78072;SDS011;67281;48.770;11.440;2023-03-04T10:55:21;11.63;;;7.27;;
78072;SDS011;67281;48.770;11.440;2023-03-04T10:58:02;10.17;;;6.60;;
78072;SDS011;67281;48.770;11.440;2023-03-04T11:00:33;14.17;;;10.03;;
78072;SDS011;67281;48.770;11.440;2023-03-04T11:03:36;14.63;;;10.37;;
78072;SDS011;67281;48.770;11.440;2023-03-04T11:06:42;13.77;;;10.27;;
78072;SDS011;67281;48.770;11.440;2023-03-04T11:08:53;14.20;;;7.80;;
78072;SDS011;67281;48.770;11.440;2023-03-04T11:11:25;14.17;;;10.67;;
78072;SDS011;67281;48.770;11.440;2023-03-04T11:13:58;12.50;;;9.07;;
78072;SDS011;67281;48.770;11.440;2023-03-04T11:16:29;12.83;;;9.23;;
78072;SDS011;67281;48.770;11.440;2023-03-04T11:18:58;14.53;;;10.17;;
78072;SDS011;67281;48.770;11.440;2023-03-04T11:21:30;14.63;;;10.13;;
78072;SDS011;67281;48.770;11.440;2023-03-04T11:24:08;13.20;;;10.23;;
78072;SDS011;67281;48.770;11.440;2023-03-04T11:26:55;13.17;;;9.73;;
78072;SDS011;67281;48.770;11.440;2023-03-04T11:37:49;15.10;;;10.80;;
78072;SDS011;67281;48.770;11.440;2023-03-04T11:40:28;15.03;;;11.47;;
78072;SDS011;67281;48.770;11.440;2023-03-04T11:56:56;14.43;;;9.33;;
78072;SDS011;67281;48.770;11.440;2023-03-04T11:59:30;16.93;;;11.87;;
78072;SDS011;67281;48.770;11.440;2023-03-04T12:18:44;14.67;;;10.27;;
78072;SDS011;67281;48.770;11.440;2023-03-04T12:25:03;11.70;;;9.30;;
78072;SDS011;67281;48.770;11.440;2023-03-04T12:28:35;9.73;;;6.50;;
78072;SDS011;67281;48.770;11.440;2023-03-04T12:33:49;14.77;;;9.87;;
78072;SDS011;67281;48.770;11.440;2023-03-04T12:47:28;12.00;;;9.30;;
78072;SDS011;67281;48.770;11.440;2023-03-04T12:53:21;13.27;;;8.80;;
78072;SDS011;67281;48.770;11.440;2023-03-04T12:56:08;12.67;;;10.00;;
78072;SDS011;67281;48.770;11.440;2023-03-04T12:58:47;14.87;;;10.00;;
78072;SDS011;67281;48.770;11.440;2023-03-04T13:01:17;13.53;;;8.93;;
78072;SDS011;67281;48.770;11.440;2023-03-04T13:03:54;15.17;;;10.17;;
78072;SDS011;67281;48.770;11.440;2023-03-04T13:06:37;15.43;;;10.43;;
78072;SDS011;67281;48.770;11.440;2023-03-04T13:09:27;13.43;;;9.67;;
78072;SDS011;67281;48.770;11.440;2023-03-04T13:12:16;15.73;;;10.40;;
78072;SDS011;67281;48.770;11.440;2023-03-04T13:20:17;14.27;;;10.73;;
78072;SDS011;67281;48.770;11.440;2023-03-04T13:43:27;7.83;;;6.03;;
78072;SDS011;67281;48.770;11.440;2023-03-04T13:49:19;13.20;;;9.00;;
78072;SDS011;67281;48.770;11.440;2023-03-04T13:51:49;13.47;;;8.40;;
78072;SDS011;67281;48.770;11.440;2023-03-04T13:54:30;13.07;;;9.37;;
78072;SDS011;67281;48.770;11.440;2023-03-04T13:59:38;12.53;;;9.53;;
78072;SDS011;67281;48.770;11.440;2023-03-04T14:02:10;12.70;;;9.50;;
78072;SDS011;67281;48.770;11.440;2023-03-04T14:04:58;10.77;;;7.50;;
78072;SDS011;67281;48.770;11.440;2023-03-04T14:07:33;12.33;;;8.93;;
78072;SDS011;67281;48.770;11.440;2023-03-04T14:12:44;12.37;;;9.40;;
78072;SDS011;67281;48.770;11.440;2023-03-04T14:17:41;12.07;;;8.97;;
78072;SDS011;67281;48.770;11.440;2023-03-04T14:22:51;9.97;;;7.60;;
78072;SDS011;67281;48.770;11.440;2023-03-04T14:25:23;9.83;;;7.87;;
78072;SDS011;67281;48.770;11.440;2023-03-04T14:30:37;13.53;;;9.53;;
78072;SDS011;67281;48.770;11.440;2023-03-04T14:33:20;11.97;;;8.60;;
78072;SDS011;67281;48.770;11.440;2023-03-04T14:35:54;11.17;;;8.10;;
78072;SDS011;67281;48.770;11.440;2023-03-04T14:38:36;11.50;;;8.53;;
78072;SDS011;67281;48.770;11.440;2023-03-04T14:46:28;10.93;;;7.80;;
78072;SDS011;67281;48.770;11.440;2023-03-04T14:49:00;13.13;;;9.33;;
78072;SDS011;67281;48.770;11.440;2023-03-04T14:51:32;11.97;;;9.90;;
78072;SDS011;67281;48.770;11.440;2023-03-04T14:54:22;13.67;;;9.07;;
78072;SDS011;67281;48.770;11.440;2023-03-04T14:56:51;12.83;;;9.03;;
78072;SDS011;67281;48.770;11.440;2023-03-04T14:59:26;10.63;;;9.17;;
78072;SDS011;67281;48.770;11.440;2023-03-04T15:02:07;15.60;;;10.83;;
78072;SDS011;67281;48.770;11.440;2023-03-04T15:04:34;9.87;;;8.53;;
78072;SDS011;67281;48.770;11.440;2023-03-04T15:07:03;11.53;;;9.67;;
78072;SDS011;67281;48.770;11.440;2023-03-04T15:09:30;12.20;;;10.13;;
78072;SDS011;67281;48.770;11.440;2023-03-04T15:12:00;13.67;;;9.63;;
78072;SDS011;67281;48.770;11.440;2023-03-04T15:17:29;15.17;;;10.80;;
78072;SDS011;67281;48.770;11.440;2023-03-04T15:22:35;11.20;;;9.77;;
78072;SDS011;67281;48.770;11.440;2023-03-04T15:25:02;13.70;;;10.33;;
78072;SDS011;67281;48.770;11.440;2023-03-04T15:27:29;11.33;;;9.77;;
78072;SDS011;67281;48.770;11.440;2023-03-04T15:29:57;12.30;;;9.87;;
78072;SDS011;67281;48.770;11.440;2023-03-04T15:32:26;14.23;;;10.77;;
78072;SDS011;67281;48.770;11.440;2023-03-04T15:34:56;10.30;;;8.00;;
78072;SDS011;67281;48.770;11.440;2023-03-04T15:37:27;11.00;;;7.47;;
78072;SDS011;67281;48.770;11.440;2023-03-04T15:39:55;6.33;;;5.03;;
78072;SDS011;67281;48.770;11.440;2023-03-04T15:42:22;13.50;;;8.87;;
78072;SDS011;67281;48.770;11.440;2023-03-04T15:44:50;12.37;;;8.77;;
78072;SDS011;67281;48.770;11.440;2023-03-04T15:47:17;12.83;;;9.63;;
78072;SDS011;67281;48.770;11.440;2023-03-04T15:49:43;14.03;;;10.13;;
78072;SDS011;67281;48.770;11.440;2023-03-04T15:52:16;11.97;;;9.77;;
78072;SDS011;67281;48.770;11.440;2023-03-04T15:54:46;12.10;;;9.20;;
78072;SDS011;67281;48.770;11.440;2023-03-04T15:57:22;12.17;;;8.73;;
78072;SDS011;67281;48.770;11.440;2023-03-04T15:59:51;11.10;;;9.07;;
78072;SDS011;67281;48.770;11.440;2023-03-04T16:02:19;11.47;;;9.70;;
78072;SDS011;67281;48.770;11.440;2023-03-04T16:04:48;11.77;;;9.47;;
78072;SDS011;67281;48.770;11.440;2023-03-04T16:07:20;14.27;;;10.03;;
78072;SDS011;67281;48.770;11.440;2023-03-04T16:09:52;12.33;;;9.90;;
78072;SDS011;67281;48.770;11.440;2023-03-04T16:12:21;12.37;;;10.57;;
78072;SDS011;67281;48.770;11.440;2023-03-04T16:14:50;12.43;;;9.83;;
78072;SDS011;67281;48.770;11.440;2023-03-04T16:17:18;13.80;;;10.23;;
78072;SDS011;67281;48.770;11.440;2023-03-04T16:19:45;12.03;;;9.23;;
78072;SDS011;67281;48.770;11.440;2023-03-04T16:22:13;12.37;;;8.93;;
78072;SDS011;67281;48.770;11.440;2023-03-04T16:24:43;12.47;;;9.63;;
78072;SDS011;67281;48.770;11.440;2023-03-04T16:27:13;10.97;;;8.53;;
78072;SDS011;67281;48.770;11.440;2023-03-04T16:29:42;12.30;;;8.83;;
78072;SDS011;67281;48.770;11.440;2023-03-04T16:32:09;14.00;;;10.60;;
78072;SDS011;67281;48.770;11.440;2023-03-04T16:34:36;11.83;;;8.13;;
78072;SDS011;67281;48.770;11.440;2023-03-04T16:37:05;9.90;;;8.73;;
78072;SDS011;67281;48.770;11.440;2023-03-04T16:39:38;12.93;;;10.10;;
78072;SDS011;67281;48.770;11.440;2023-03-04T16:42:13;14.87;;;9.53;;